Wetterdaten: Woche 22.06.20 - 28.06.20 (KW26)
Datum Zeit Temp. Aussen Temp. o. S. Temp +5cm Feuchte Auss Luftdruck Regen Sonnenschein Regendauer Solar Windben Empfang
22.06.2020 00:00 20,1 C 18,4 C 18,3 C 75 % 1020,8 hPa 0,0 l/m 0,00 h 0,03 h 0 W/m 0,3 km/h (0 Bft) 97,72 %
22.06.2020 01:00 19,4 C 17,3 C 17,6 C 82 % 1021,2 hPa 0,0 l/m 0,00 h 0,33 h 0 W/m 2,9 km/h (1 Bft) 97,29 %
22.06.2020 02:00 18,4 C 15,7 C 16,3 C 91 % 1021,6 hPa 5,2 l/m 0,00 h 1,00 h 0 W/m 1,4 km/h (1 Bft) 97,64 %
22.06.2020 03:00 16,5 C 14,4 C 14,7 C 94 % 1022,2 hPa 0,6 l/m 0,00 h 0,47 h 0 W/m 5,9 km/h (2 Bft) 99,43 %
22.06.2020 04:00 14,8 C 13,2 C 13,4 C 96 % 1022,7 hPa 0,0 l/m 0,00 h 0,00 h 0 W/m 4,6 km/h (1 Bft) 95,35 %
22.06.2020 05:00 14,0 C 12,6 C 12,8 C 97 % 1023,2 hPa 0,0 l/m 0,00 h 0,00 h 7 W/m 4,7 km/h (1 Bft) 97,56 %
22.06.2020 06:00 13,7 C 12,8 C 12,8 C 97 % 1023,6 hPa 0,0 l/m 0,00 h 0,00 h 32 W/m 2,2 km/h (1 Bft) 99,49 %
22.06.2020 07:00 13,9 C 13,3 C 13,3 C 97 % 1024,1 hPa 0,0 l/m 0,00 h 0,00 h 78 W/m 3,8 km/h (1 Bft) 96,26 %
22.06.2020 08:00 14,3 C 13,9 C 13,6 C 98 % 1024,8 hPa 0,0 l/m 0,00 h 0,00 h 99 W/m 2,5 km/h (1 Bft) 97,08 %
22.06.2020 09:00 14,8 C 14,6 C 14,1 C 97 % 1025,4 hPa 0,0 l/m 0,00 h 0,00 h 138 W/m 0,6 km/h (0 Bft) 98,65 %
22.06.2020 10:00 15,6 C 16,3 C 15,1 C 95 % 1025,7 hPa 0,0 l/m 0,00 h 0,00 h 193 W/m 2,7 km/h (1 Bft) 97,06 %
22.06.2020 11:00 17,3 C 20,3 C 17,5 C 90 % 1026,1 hPa 0,0 l/m 0,23 h 0,00 h 379 W/m 7,5 km/h (2 Bft) 96,75 %
22.06.2020 12:00 20,5 C 26,9 C 21,5 C 80 % 1026,5 hPa 0,0 l/m 0,90 h 0,00 h 967 W/m 7,4 km/h (2 Bft) 98,12 %
22.06.2020 13:00 22,8 C 28,4 C 24,0 C 72 % 1026,5 hPa 0,0 l/m 1,00 h 0,00 h 1017 W/m 8,9 km/h (2 Bft) 99,29 %
22.06.2020 14:00 24,2 C 27,9 C 22,8 C 66 % 1026,4 hPa 0,0 l/m 0,77 h 0,00 h 788 W/m 7,1 km/h (2 Bft) 95,45 %
22.06.2020 15:00 24,7 C 28,9 C 22,1 C 60 % 1026,2 hPa 0,0 l/m 0,77 h 0,00 h 756 W/m 7,3 km/h (2 Bft) 98,43 %
22.06.2020 16:00 26,0 C 29,4 C 22,2 C 58 % 1025,7 hPa 0,0 l/m 0,93 h 0,00 h 756 W/m 7,4 km/h (2 Bft) 99,86 %
22.06.2020 17:00 26,2 C 28,5 C 22,0 C 56 % 1025,2 hPa 0,0 l/m 0,93 h 0,00 h 606 W/m 4,5 km/h (1 Bft) 94,24 %
22.06.2020 18:00 26,2 C 27,0 C 21,9 C 57 % 1025,0 hPa 0,0 l/m 1,00 h 0,00 h 469 W/m 4,3 km/h (1 Bft) 98,35 %
22.06.2020 19:00 25,0 C 23,8 C 20,8 C 58 % 1024,9 hPa 0,0 l/m 0,80 h 0,00 h 231 W/m 2,0 km/h (1 Bft) 99,15 %
22.06.2020 20:00 23,1 C 21,1 C 19,0 C 63 % 1024,8 hPa 0,0 l/m 0,00 h 0,00 h 48 W/m 0,3 km/h (0 Bft) 95,87 %
22.06.2020 21:00 21,4 C 18,7 C 17,3 C 67 % 1024,9 hPa 0,0 l/m 0,00 h 0,00 h 14 W/m 0,0 km/h (0 Bft) 93,34 %
22.06.2020 22:00 19,3 C 16,2 C 15,5 C 74 % 1025,1 hPa 0,0 l/m 0,00 h 0,00 h 0 W/m 0,0 km/h (0 Bft) 97,58 %
22.06.2020 23:00 17,6 C 15,1 C 14,4 C 79 % 1025,3 hPa 0,0 l/m 0,00 h 0,00 h 0 W/m 0,0 km/h (0 Bft) 96,73 %
23.06.2020 00:00 16,3 C 13,9 C 13,4 C 82 % 1025,4 hPa 0,0 l/m 0,00 h 0,00 h 0 W/m 0,0 km/h (0 Bft) 99,12 %
23.06.2020 01:00 15,2 C 13,0 C 12,6 C 84 % 1025,5 hPa 0,0 l/m 0,00 h 0,00 h 0 W/m 0,0 km/h (0 Bft) 95,05 %
23.06.2020 02:00 14,3 C 12,2 C 12,1 C 86 % 1025,4 hPa 0,0 l/m 0,00 h 0,00 h 0 W/m 0,0 km/h (0 Bft) 94,58 %
23.06.2020 03:00 13,5 C 11,7 C 11,7 C 87 % 1025,5 hPa 0,0 l/m 0,00 h 0,00 h 0 W/m 0,0 km/h (0 Bft) 98,58 %
23.06.2020 04:00 12,9 C 11,1 C 11,1 C 89 % 1025,5 hPa 0,0 l/m 0,00 h 0,00 h 0 W/m 0,0 km/h (0 Bft) 98,81 %
23.06.2020 05:00 12,4 C 10,8 C 10,7 C 91 % 1025,6 hPa 0,0 l/m 0,00 h 0,00 h 8 W/m 0,0 km/h (0 Bft) 96,65 %
23.06.2020 06:00 12,3 C 11,8 C 11,2 C 93 % 1025,7 hPa 0,0 l/m 0,00 h 0,00 h 22 W/m 0,0 km/h (0 Bft) 94,32 %
23.06.2020 07:00 13,7 C 15,0 C 13,5 C 96 % 1025,8 hPa 0,0 l/m 0,00 h 0,00 h 43 W/m 4,2 km/h (1 Bft) 98,71 %
23.06.2020 08:00 17,3 C 22,6 C 19,0 C 91 % 1026,0 hPa 0,0 l/m 0,00 h 0,00 h 69 W/m 10,1 km/h (2 Bft) 98,15 %
23.06.2020 09:00 21,6 C 26,2 C 26,5 C 74 % 1026,0 hPa 0,0 l/m 0,83 h 0,00 h 487 W/m 10,2 km/h (2 Bft) 97,21 %
23.06.2020 10:00 24,3 C 28,7 C 29,4 C 64 % 1025,9 hPa 0,0 l/m 1,00 h 0,00 h 699 W/m 11,1 km/h (2 Bft) 96,30 %
23.06.2020 11:00 26,1 C 31,4 C 27,7 C 57 % 1025,8 hPa 0,0 l/m 1,00 h 0,00 h 840 W/m 8,0 km/h (2 Bft) 98,72 %
23.06.2020 12:00 28,0 C 33,4 C 27,2 C 54 % 1025,7 hPa 0,0 l/m 1,00 h 0,00 h 920 W/m 7,0 km/h (2 Bft) 98,19 %
23.06.2020 13:00 28,0 C 32,4 C 28,1 C 50 % 1025,6 hPa 0,0 l/m 1,00 h 0,00 h 950 W/m 12,0 km/h (2 Bft) 94,79 %
23.06.2020 14:00 28,3 C 33,5 C 26,8 C 50 % 1025,2 hPa 0,0 l/m 1,00 h 0,00 h 938 W/m 8,6 km/h (2 Bft) 99,86 %
23.06.2020 15:00 29,6 C 34,0 C 26,5 C 47 % 1024,7 hPa 0,0 l/m 1,00 h 0,00 h 870 W/m 8,5 km/h (2 Bft) 99,00 %
23.06.2020 16:00 30,4 C 33,4 C 26,4 C 45 % 1024,3 hPa 0,0 l/m 1,00 h 0,00 h 753 W/m 6,3 km/h (2 Bft) 95,50 %
23.06.2020 17:00 30,8 C 33,0 C 26,0 C 45 % 1023,8 hPa 0,0 l/m 1,00 h 0,00 h 606 W/m 3,8 km/h (1 Bft) 97,06 %
23.06.2020 18:00 30,7 C 30,8 C 25,4 C 46 % 1023,4 hPa 0,0 l/m 1,00 h 0,00 h 429 W/m 4,9 km/h (1 Bft) 96,87 %
23.06.2020 19:00 29,6 C 27,5 C 23,9 C 47 % 1023,3 hPa 0,0 l/m 0,80 h 0,00 h 232 W/m 2,6 km/h (1 Bft) 96,49 %
23.06.2020 20:00 27,1 C 23,9 C 21,1 C 53 % 1023,2 hPa 0,0 l/m 0,00 h 0,00 h 41 W/m 1,0 km/h (0 Bft) 99,66 %
23.06.2020 21:00 24,4 C 21,3 C 19,1 C 61 % 1023,2 hPa 0,0 l/m 0,00 h 0,00 h 13 W/m 0,0 km/h (0 Bft) 95,80 %
23.06.2020 22:00 22,3 C 19,7 C 18,0 C 64 % 1023,7 hPa 0,0 l/m 0,00 h 0,00 h 0 W/m 0,0 km/h (0 Bft) 97,50 %
23.06.2020 23:00 20,6 C 18,0 C 16,9 C 67 % 1024,0 hPa 0,0 l/m 0,00 h 0,00 h 0 W/m 0,0 km/h (0 Bft) 99,64 %
24.06.2020 00:00 19,0 C 16,4 C 15,5 C 72 % 1023,8 hPa 0,0 l/m 0,00 h 0,00 h 0 W/m 0,0 km/h (0 Bft) 93,02 %
24.06.2020 01:00 17,7 C 15,9 C 15,0 C 76 % 1023,6 hPa 0,0 l/m 0,00 h 0,00 h 0 W/m 0,0 km/h (0 Bft) 96,11 %
24.06.2020 02:00 17,1 C 15,8 C 14,9 C 79 % 1023,5 hPa 0,0 l/m 0,00 h 0,00 h 0 W/m 0,0 km/h (0 Bft) 97,21 %
24.06.2020 03:00 16,7 C 15,4 C 14,7 C 81 % 1023,5 hPa 0,0 l/m 0,00 h 0,00 h 0 W/m 0,0 km/h (0 Bft) 98,36 %
24.06.2020 04:00 16,2 C 14,2 C 13,7 C 82 % 1023,2 hPa 0,0 l/m 0,00 h 0,00 h 0 W/m 0,0 km/h (0 Bft) 97,23 %
24.06.2020 05:00 15,4 C 13,4 C 12,9 C 84 % 1023,3 hPa 0,0 l/m 0,00 h 0,00 h 8 W/m 0,0 km/h (0 Bft) 96,44 %
24.06.2020 06:00 15,0 C 14,6 C 13,5 C 88 % 1023,5 hPa 0,0 l/m 0,00 h 0,00 h 19 W/m 0,0 km/h (0 Bft) 97,57 %
24.06.2020 07:00 15,8 C 16,6 C 14,5 C 90 % 1023,6 hPa 0,0 l/m 0,00 h 0,00 h 35 W/m 0,2 km/h (0 Bft) 98,00 %
24.06.2020 08:00 19,0 C 26,3 C 20,9 C 86 % 1023,6 hPa 0,0 l/m 0,00 h 0,00 h 51 W/m 0,6 km/h (0 Bft) 98,02 %
24.06.2020 09:00 24,6 C 30,1 C 30,2 C 64 % 1023,5 hPa 0,0 l/m 0,83 h 0,00 h 508 W/m 3,6 km/h (1 Bft) 96,87 %
24.06.2020 10:00 27,8 C 32,8 C 33,2 C 53 % 1023,2 hPa 0,0 l/m 1,00 h 0,00 h 728 W/m 6,3 km/h (2 Bft) 97,79 %
24.06.2020 11:00 29,6 C 34,2 C 31,0 C 47 % 1022,7 hPa 0,0 l/m 1,00 h 0,00 h 855 W/m 10,3 km/h (2 Bft) 97,80 %
24.06.2020 12:00 30,8 C 35,8 C 30,7 C 45 % 1022,3 hPa 0,0 l/m 1,00 h 0,00 h 940 W/m 9,3 km/h (2 Bft) 97,24 %
24.06.2020 13:00 32,3 C 37,2 C 32,6 C 45 % 1021,8 hPa 0,0 l/m 1,00 h 0,00 h 976 W/m 8,5 km/h (2 Bft) 98,86 %
24.06.2020 14:00 32,9 C 37,0 C 30,1 C 44 % 1021,4 hPa 0,0 l/m 1,00 h 0,00 h 960 W/m 7,1 km/h (2 Bft) 97,41 %
24.06.2020 15:00 33,0 C 36,6 C 29,0 C 43 % 1021,1 hPa 0,0 l/m 1,00 h 0,00 h 890 W/m 8,6 km/h (2 Bft) 96,94 %
24.06.2020 16:00 33,0 C 35,7 C 28,8 C 43 % 1020,9 hPa 0,0 l/m 1,00 h 0,00 h 779 W/m 8,9 km/h (2 Bft) 97,74 %
24.06.2020 17:00 32,6 C 34,3 C 28,0 C 43 % 1020,5 hPa 0,0 l/m 1,00 h 0,00 h 637 W/m 8,4 km/h (2 Bft) 96,11 %
24.06.2020 18:00 31,6 C 31,5 C 26,6 C 41 % 1020,2 hPa 0,0 l/m 1,00 h 0,00 h 466 W/m 9,0 km/h (2 Bft) 99,62 %
24.06.2020 19:00 29,6 C 27,6 C 24,7 C 42 % 1020,0 hPa 0,0 l/m 0,80 h 0,00 h 243 W/m 7,5 km/h (2 Bft) 98,18 %
24.06.2020 20:00 26,8 C 24,7 C 23,4 C 48 % 1019,9 hPa 0,0 l/m 0,00 h 0,00 h 41 W/m 6,6 km/h (2 Bft) 96,01 %
24.06.2020 21:00 24,9 C 22,3 C 21,6 C 53 % 1020,0 hPa 0,0 l/m 0,00 h 0,00 h 13 W/m 1,7 km/h (1 Bft) 97,72 %
24.06.2020 22:00 22,9 C 20,0 C 19,6 C 59 % 1020,5 hPa 0,0 l/m 0,00 h 0,00 h 0 W/m 0,0 km/h (0 Bft) 97,79 %
24.06.2020 23:00 21,1 C 18,7 C 18,0 C 65 % 1020,7 hPa 0,0 l/m 0,00 h 0,00 h 0 W/m 0,0 km/h (0 Bft) 96,02 %
25.06.2020 00:00 19,8 C 17,7 C 17,1 C 69 % 1020,9 hPa 0,0 l/m 0,00 h 0,00 h 0 W/m 0,0 km/h (0 Bft) 97,21 %
25.06.2020 01:00 18,8 C 16,7 C 16,2 C 72 % 1020,9 hPa 0,0 l/m 0,00 h 0,00 h 0 W/m 0,0 km/h (0 Bft) 97,00 %
25.06.2020 02:00 17,7 C 15,7 C 15,1 C 75 % 1020,9 hPa 0,0 l/m 0,00 h 0,00 h 0 W/m 0,0 km/h (0 Bft) 98,08 %
25.06.2020 03:00 16,9 C 14,9 C 14,6 C 78 % 1020,7 hPa 0,0 l/m 0,00 h 0,00 h 0 W/m 0,0 km/h (0 Bft) 98,65 %
25.06.2020 04:00 16,1 C 14,4 C 13,9 C 82 % 1020,5 hPa 0,0 l/m 0,00 h 0,00 h 0 W/m 0,0 km/h (0 Bft) 94,89 %
25.06.2020 05:00 15,6 C 14,4 C 13,9 C 84 % 1020,5 hPa 0,0 l/m 0,00 h 0,00 h 7 W/m 0,0 km/h (0 Bft) 99,50 %
25.06.2020 06:00 15,6 C 15,2 C 14,2 C 87 % 1020,4 hPa 0,0 l/m 0,00 h 0,00 h 18 W/m 0,0 km/h (0 Bft) 97,72 %
25.06.2020 07:00 16,5 C 17,1 C 15,3 C 90 % 1020,1 hPa 0,0 l/m 0,00 h 0,00 h 34 W/m 0,1 km/h (0 Bft) 97,22 %
25.06.2020 08:00 20,0 C 26,3 C 21,4 C 81 % 1020,0 hPa 0,0 l/m 0,00 h 0,00 h 50 W/m 10,0 km/h (2 Bft) 98,58 %
25.06.2020 09:00 25,1 C 28,7 C 29,5 C 62 % 1019,9 hPa 0,0 l/m 0,83 h 0,00 h 495 W/m 17,1 km/h (3 Bft) 95,81 %
25.06.2020 10:00 27,3 C 31,0 C 31,7 C 55 % 1019,7 hPa 0,0 l/m 1,00 h 0,00 h 713 W/m 16,3 km/h (3 Bft) 98,15 %
25.06.2020 11:00 28,7 C 32,6 C 30,6 C 52 % 1019,3 hPa 0,0 l/m 1,00 h 0,00 h 831 W/m 14,8 km/h (3 Bft) 98,01 %
25.06.2020 12:00 29,8 C 34,1 C 30,2 C 52 % 1018,7 hPa 0,0 l/m 0,90 h 0,00 h 884 W/m 12,7 km/h (3 Bft) 97,08 %
25.06.2020 13:00 31,2 C 35,4 C 31,8 C 50 % 1018,0 hPa 0,0 l/m 0,90 h 0,00 h 933 W/m 11,6 km/h (2 Bft) 98,86 %
25.06.2020 14:00 31,6 C 34,1 C 29,3 C 49 % 1017,5 hPa 0,0 l/m 0,50 h 0,00 h 646 W/m 7,2 km/h (2 Bft) 94,88 %
25.06.2020 15:00 31,4 C 33,2 C 28,8 C 49 % 1016,9 hPa 0,0 l/m 0,60 h 0,00 h 636 W/m 11,5 km/h (2 Bft) 98,36 %
25.06.2020 16:00 31,3 C 33,5 C 28,8 C 50 % 1016,4 hPa 0,0 l/m 0,90 h 0,00 h 575 W/m 10,2 km/h (2 Bft) 99,43 %
25.06.2020 17:00 32,2 C 32,2 C 28,3 C 51 % 1016,0 hPa 0,0 l/m 0,47 h 0,00 h 399 W/m 7,1 km/h (2 Bft) 96,45 %
25.06.2020 18:00 30,0 C 29,4 C 26,5 C 55 % 1015,6 hPa 0,0 l/m 0,40 h 0,00 h 283 W/m 9,0 km/h (2 Bft) 96,57 %
25.06.2020 19:00 29,7 C 28,4 C 25,3 C 56 % 1015,4 hPa 0,0 l/m 0,80 h 0,00 h 241 W/m 12,9 km/h (3 Bft) 97,19 %
25.06.2020 20:00 27,9 C 26,1 C 24,8 C 58 % 1015,4 hPa 0,0 l/m 0,00 h 0,00 h 37 W/m 11,3 km/h (2 Bft) 98,02 %
25.06.2020 21:00 26,2 C 24,2 C 23,4 C 63 % 1015,5 hPa 0,0 l/m 0,00 h 0,00 h 11 W/m 5,2 km/h (1 Bft) 95,23 %
25.06.2020 22:00 24,9 C 22,7 C 22,1 C 67 % 1015,8 hPa 0,0 l/m 0,00 h 0,00 h 0 W/m 0,7 km/h (0 Bft) 97,16 %
25.06.2020 23:00 23,2 C 20,0 C 19,4 C 73 % 1015,8 hPa 0,0 l/m 0,00 h 0,00 h 0 W/m 0,0 km/h (0 Bft) 99,26 %
26.06.2020 00:00 21,4 C 19,1 C 18,8 C 77 % 1015,3 hPa 0,0 l/m 0,00 h 0,00 h 0 W/m 0,0 km/h (0 Bft) 95,56 %
26.06.2020 01:00 20,4 C 18,9 C 18,8 C 76 % 1014,8 hPa 0,0 l/m 0,00 h 0,00 h 0 W/m 0,2 km/h (0 Bft) 96,89 %
26.06.2020 02:00 19,8 C 18,3 C 18,0 C 77 % 1014,5 hPa 0,0 l/m 0,00 h 0,00 h 0 W/m 1,1 km/h (0 Bft) 98,86 %
26.06.2020 03:00 19,7 C 18,3 C 18,2 C 76 % 1014,3 hPa 0,0 l/m 0,00 h 0,00 h 0 W/m 1,8 km/h (1 Bft) 96,71 %
26.06.2020 04:00 19,0 C 17,5 C 17,7 C 78 % 1014,0 hPa 0,0 l/m 0,00 h 0,00 h 0 W/m 1,5 km/h (1 Bft) 97,12 %
26.06.2020 05:00 18,6 C 17,5 C 17,4 C 80 % 1013,8 hPa 0,0 l/m 0,00 h 0,00 h 8 W/m 3,3 km/h (1 Bft) 97,30 %
26.06.2020 06:00 18,6 C 17,9 C 17,3 C 80 % 1013,4 hPa 0,0 l/m 0,00 h 0,00 h 18 W/m 1,7 km/h (1 Bft) 97,05 %
26.06.2020 07:00 19,5 C 19,9 C 18,7 C 77 % 1013,4 hPa 0,0 l/m 0,00 h 0,00 h 34 W/m 8,5 km/h (2 Bft) 98,93 %
26.06.2020 08:00 22,9 C 26,9 C 23,9 C 67 % 1013,4 hPa 0,0 l/m 0,00 h 0,00 h 50 W/m 13,4 km/h (3 Bft) 95,28 %
26.06.2020 09:00 25,8 C 29,1 C 30,3 C 58 % 1013,1 hPa 0,0 l/m 0,83 h 0,00 h 497 W/m 17,4 km/h (3 Bft) 97,58 %
26.06.2020 10:00 27,5 C 31,1 C 32,4 C 54 % 1012,5 hPa 0,0 l/m 1,00 h 0,00 h 718 W/m 19,4 km/h (3 Bft) 99,21 %
26.06.2020 11:00 29,0 C 32,8 C 31,6 C 49 % 1012,3 hPa 0,0 l/m 1,00 h 0,00 h 839 W/m 20,2 km/h (4 Bft) 94,95 %
26.06.2020 12:00 29,8 C 33,9 C 30,7 C 48 % 1011,9 hPa 0,0 l/m 1,00 h 0,00 h 922 W/m 18,6 km/h (3 Bft) 98,34 %
26.06.2020 13:00 30,5 C 34,6 C 32,5 C 45 % 1011,4 hPa 0,0 l/m 1,00 h 0,00 h 970 W/m 20,1 km/h (4 Bft) 98,93 %
26.06.2020 14:00 31,4 C 35,9 C 31,4 C 44 % 1011,2 hPa 0,0 l/m 1,00 h 0,00 h 948 W/m 14,8 km/h (3 Bft) 95,01 %
26.06.2020 15:00 32,6 C 36,3 C 30,2 C 43 % 1010,6 hPa 0,0 l/m 1,00 h 0,00 h 876 W/m 12,7 km/h (3 Bft) 97,79 %
26.06.2020 16:00 33,2 C 36,7 C 29,9 C 45 % 1009,7 hPa 0,0 l/m 1,00 h 0,00 h 765 W/m 7,5 km/h (2 Bft) 98,79 %
26.06.2020 17:00 34,6 C 36,6 C 29,9 C 44 % 1009,3 hPa 0,0 l/m 1,00 h 0,00 h 647 W/m 5,6 km/h (1 Bft) 96,86 %
26.06.2020 18:00 33,3 C 31,7 C 28,6 C 43 % 1009,1 hPa 0,0 l/m 0,40 h 0,00 h 227 W/m 5,0 km/h (1 Bft) 99,34 %
26.06.2020 19:00 31,7 C 30,2 C 28,5 C 44 % 1008,9 hPa 0,0 l/m 0,07 h 0,00 h 116 W/m 6,3 km/h (2 Bft) 97,36 %
26.06.2020 20:00 27,8 C 25,3 C 25,4 C 56 % 1009,7 hPa 0,0 l/m 0,00 h 0,00 h 29 W/m 29,7 km/h (5 Bft) 95,58 %
26.06.2020 21:00 24,7 C 23,1 C 23,4 C 68 % 1009,7 hPa 0,0 l/m 0,00 h 0,00 h 9 W/m 12,3 km/h (3 Bft) 99,36 %
26.06.2020 22:00 23,6 C 21,9 C 22,3 C 71 % 1009,8 hPa 0,0 l/m 0,00 h 0,00 h 0 W/m 2,3 km/h (1 Bft) 94,05 %
26.06.2020 23:00 22,9 C 21,0 C 21,4 C 74 % 1010,8 hPa 0,0 l/m 0,00 h 0,27 h 0 W/m 1,1 km/h (0 Bft) 94,54 %
27.06.2020 00:00 22,2 C 20,0 C 20,3 C 79 % 1010,7 hPa 0,0 l/m 0,00 h 0,53 h 0 W/m 3,5 km/h (1 Bft) 98,80 %
27.06.2020 01:00 21,2 C 18,8 C 19,1 C 84 % 1010,4 hPa 0,0 l/m 0,00 h 0,37 h 0 W/m 2,7 km/h (1 Bft) 96,93 %
27.06.2020 02:00 20,5 C 18,9 C 18,9 C 87 % 1009,9 hPa 0,0 l/m 0,00 h 0,00 h 0 W/m 6,5 km/h (2 Bft) 97,51 %
27.06.2020 03:00 20,2 C 18,9 C 18,9 C 88 % 1009,9 hPa 0,0 l/m 0,00 h 0,00 h 0 W/m 4,9 km/h (1 Bft) 97,01 %
27.06.2020 04:00 20,0 C 18,9 C 18,9 C 87 % 1009,7 hPa 0,0 l/m 0,00 h 0,00 h 0 W/m 5,4 km/h (1 Bft) 97,19 %
27.06.2020 05:00 19,8 C 18,7 C 18,4 C 88 % 1009,6 hPa 0,0 l/m 0,00 h 0,00 h 14 W/m 3,4 km/h (1 Bft) 98,79 %
27.06.2020 06:00 19,7 C 18,9 C 18,7 C 89 % 1009,8 hPa 0,0 l/m 0,03 h 0,00 h 41 W/m 4,5 km/h (1 Bft) 96,65 %
27.06.2020 07:00 20,2 C 20,6 C 19,5 C 88 % 1010,1 hPa 0,0 l/m 0,00 h 0,00 h 91 W/m 4,3 km/h (1 Bft) 96,94 %
27.06.2020 08:00 21,5 C 21,5 C 20,6 C 83 % 1010,1 hPa 0,0 l/m 0,00 h 0,00 h 94 W/m 7,0 km/h (2 Bft) 97,87 %
27.06.2020 09:00 22,1 C 22,1 C 20,9 C 79 % 1009,8 hPa 0,0 l/m 0,00 h 0,00 h 127 W/m 6,6 km/h (2 Bft) 96,65 %
27.06.2020 10:00 23,0 C 24,5 C 22,9 C 76 % 1009,8 hPa 0,0 l/m 0,33 h 0,00 h 331 W/m 5,4 km/h (1 Bft) 97,65 %
27.06.2020 11:00 25,1 C 27,8 C 25,9 C 67 % 1009,9 hPa 0,0 l/m 0,67 h 0,00 h 528 W/m 16,0 km/h (3 Bft) 96,94 %
27.06.2020 12:00 27,6 C 31,2 C 28,8 C 61 % 1009,7 hPa 0,0 l/m 0,90 h 0,00 h 850 W/m 24,2 km/h (4 Bft) 98,41 %
27.06.2020 13:00 28,0 C 28,7 C 27,6 C 63 % 1009,4 hPa 0,0 l/m 0,27 h 0,00 h 400 W/m 22,1 km/h (4 Bft) 97,66 %
27.06.2020 14:00 28,7 C 31,8 C 28,9 C 59 % 1009,2 hPa 0,0 l/m 1,00 h 0,00 h 967 W/m 26,7 km/h (4 Bft) 96,14 %
27.06.2020 15:00 29,1 C 31,4 C 28,0 C 53 % 1009,1 hPa 0,0 l/m 0,97 h 0,00 h 838 W/m 30,7 km/h (5 Bft) 99,36 %
27.06.2020 16:00 28,0 C 27,0 C 26,6 C 55 % 1009,1 hPa 0,0 l/m 0,00 h 0,13 h 230 W/m 22,0 km/h (4 Bft) 97,08 %
27.06.2020 17:00 26,7 C 26,3 C 25,6 C 60 % 1009,2 hPa 0,0 l/m 0,00 h 0,00 h 172 W/m 20,1 km/h (4 Bft) 95,62 %
27.06.2020 18:00 26,3 C 25,8 C 25,1 C 60 % 1009,2 hPa 0,0 l/m 0,17 h 0,00 h 164 W/m 23,3 km/h (4 Bft) 99,83 %
27.06.2020 19:00 26,2 C 25,5 C 24,5 C 62 % 1009,3 hPa 0,0 l/m 0,40 h 0,00 h 185 W/m 20,4 km/h (4 Bft) 96,76 %
27.06.2020 20:00 25,0 C 23,7 C 23,4 C 64 % 1009,7 hPa 0,0 l/m 0,00 h 0,00 h 53 W/m 24,0 km/h (4 Bft) 97,27 %
27.06.2020 21:00 24,1 C 22,8 C 22,6 C 67 % 1009,9 hPa 0,0 l/m 0,00 h 0,00 h 16 W/m 18,9 km/h (3 Bft) 98,52 %
27.06.2020 22:00 23,3 C 21,9 C 21,7 C 69 % 1010,3 hPa 0,0 l/m 0,00 h 0,00 h 0 W/m 11,7 km/h (2 Bft) 97,51 %
27.06.2020 23:00 22,5 C 21,1 C 21,1 C 72 % 1010,2 hPa 0,0 l/m 0,00 h 0,00 h 0 W/m 5,9 km/h (2 Bft) 95,94 %
28.06.2020 00:00 22,2 C 21,1 C 21,0 C 74 % 1010,2 hPa 0,0 l/m 0,00 h 0,07 h 0 W/m 11,6 km/h (2 Bft) 97,99 %
28.06.2020 01:00 22,0 C 20,7 C 20,6 C 75 % 1010,2 hPa 0,0 l/m 0,00 h 0,00 h 0 W/m 3,5 km/h (1 Bft) 98,86 %
28.06.2020 02:00 21,8 C 20,6 C 20,5 C 77 % 1010,1 hPa 0,0 l/m 0,00 h 0,00 h 0 W/m 7,5 km/h (2 Bft) 95,85 %
28.06.2020 03:00 21,4 C 20,3 C 20,2 C 76 % 1010,1 hPa 0,0 l/m 0,00 h 0,00 h 0 W/m 15,8 km/h (3 Bft) 96,67 %
28.06.2020 04:00 21,0 C 19,7 C 19,6 C 79 % 1010,0 hPa 0,0 l/m 0,00 h 0,00 h 0 W/m 10,5 km/h (2 Bft) 99,15 %
28.06.2020 05:00 20,5 C 19,4 C 19,1 C 81 % 1010,0 hPa 0,0 l/m 0,00 h 0,00 h 9 W/m 17,7 km/h (3 Bft) 96,11 %
28.06.2020 06:00 19,8 C 17,4 C 18,1 C 82 % 1010,6 hPa 0,0 l/m 0,00 h 0,13 h 15 W/m 6,6 km/h (2 Bft) 96,47 %
28.06.2020 07:00 18,1 C 16,6 C 17,1 C 85 % 1011,4 hPa 0,0 l/m 0,00 h 0,03 h 40 W/m 3,3 km/h (1 Bft) 99,79 %
28.06.2020 08:00 17,7 C 15,7 C 16,3 C 88 % 1012,4 hPa 0,2 l/m 0,00 h 0,43 h 47 W/m 4,0 km/h (1 Bft) 97,01 %
28.06.2020 09:00 16,9 C 16,1 C 15,8 C 88 % 1013,1 hPa 0,0 l/m 0,00 h 0,00 h 65 W/m 9,4 km/h (2 Bft) 96,45 %
28.06.2020 10:00 17,2 C 17,6 C 16,7 C 81 % 1013,5 hPa 0,0 l/m 0,00 h 0,00 h 194 W/m 15,9 km/h (3 Bft) 98,43 %
28.06.2020 11:00 18,5 C 20,1 C 18,3 C 75 % 1014,0 hPa 0,0 l/m 0,37 h 0,00 h 359 W/m 16,2 km/h (3 Bft) 96,15 %
28.06.2020 12:00 19,6 C 20,9 C 19,3 C 70 % 1014,3 hPa 0,2 l/m 0,23 h 0,00 h 373 W/m 14,5 km/h (3 Bft) 97,57 %
28.06.2020 13:00 20,4 C 21,2 C 19,8 C 69 % 1014,2 hPa 0,0 l/m 0,23 h 0,13 h 355 W/m 16,1 km/h (3 Bft) 98,17 %
28.06.2020 14:00 20,9 C 23,8 C 20,9 C 70 % 1014,1 hPa 0,0 l/m 0,80 h 0,00 h 641 W/m 13,5 km/h (3 Bft) 97,15 %
28.06.2020 15:00 21,7 C 23,2 C 21,1 C 61 % 1013,9 hPa 0,0 l/m 0,73 h 0,00 h 459 W/m 17,5 km/h (3 Bft) 96,14 %
28.06.2020 16:00 22,1 C 23,1 C 21,2 C 59 % 1013,7 hPa 0,0 l/m 0,23 h 0,00 h 376 W/m 13,3 km/h (3 Bft) 96,88 %
28.06.2020 17:00 23,2 C 25,3 C 22,0 C 55 % 1013,5 hPa 0,0 l/m 0,70 h 0,00 h 521 W/m 14,1 km/h (3 Bft) 99,65 %
28.06.2020 18:00 23,5 C 24,6 C 21,9 C 49 % 1013,3 hPa 0,0 l/m 0,83 h 0,00 h 484 W/m 16,1 km/h (3 Bft) 96,25 %
28.06.2020 19:00 23,5 C 22,6 C 21,2 C 47 % 1013,2 hPa 0,0 l/m 0,60 h 0,00 h 249 W/m 12,9 km/h (3 Bft) 96,86 %
28.06.2020 20:00 21,6 C 20,4 C 19,9 C 52 % 1013,1 hPa 0,0 l/m 0,00 h 0,00 h 48 W/m 8,7 km/h (2 Bft) 99,57 %
28.06.2020 21:00 20,6 C 18,8 C 18,7 C 56 % 1013,0 hPa 0,0 l/m 0,00 h 0,00 h 11 W/m 4,7 km/h (1 Bft) 96,16 %
28.06.2020 22:00 19,4 C 17,5 C 17,4 C 61 % 1013,1 hPa 0,0 l/m 0,00 h 0,00 h 0 W/m 3,1 km/h (1 Bft) 96,73 %
28.06.2020 23:00 18,5 C 16,8 C 16,8 C 66 % 1013,1 hPa 0,0 l/m 0,00 h 0,00 h 0 W/m 3,6 km/h (1 Bft) 99,44 %
Min-Datum _ 23.06.20 23.06.20 23.06.20 24.06.20 26.06.20 - - - - 22.06.20 24.06.20
_ Min-Zeit 06:10 05:04 05:14 18:28 19:54 - - - - 00:00 00:02
Minimum _ 12,2 C 10,6 C 10,6 C 39 % 1008,8 hPa - - - - 0,0 km/h (0 Bft) 5,56 %
Max-Datum _ 26.06.20 26.06.20 24.06.20 22.06.20 22.06.20 22.06.20 22.06.20 27.06.20 22.06.20 27.06.20 22.06.20
_ Max-Zeit 17:26 14:44 13:42 06:58 12:36 02:36 12:08 00:08 12:38 15:16 00:02
Maximum _ 34,8 C 38,9 C 36,7 C 98 % 1026,6 hPa 5,2 l/m 0,07 h 0,07 h 1183 W/m 51,5 km/h
S-SO (7 Bft)
100,00 %
Durchschnitt _ 22,9 C 23,3 C 21,5 C 68 % 1017,7 hPa #6,2 l/m #55:40 h #3:58 h 390 W/m 7,4 km/h (2 Bft) 97,36 %
© 2020 W. Hausmann